Time;durP1;ratioP1;P1;durP2;ratioP2;P2;SDS_P1;SDS_P2;PMS_P1;PMS_P2;Temp;Humidity;BMP_temperature;BMP_pressure;BME280_temperature;BME280_humidity;BME280_pressure;Samples;Min_cycle;Max_cycle;Signal;HPM_P1;HPM_P2
2022/12/19 00:00:18;;;;;;;;;;;2.40;82.80;;;;;;5016025;28;19925;-81
2022/12/19 00:02:44;;;;;;;;;;;2.40;82.70;;;;;;5041772;28;19913;-81
2022/12/19 00:05:09;;;;;;;;;;;2.30;83.40;;;;;;5045348;28;19917;-83
2022/12/19 00:07:34;;;;;;;;;;;2.30;83.30;;;;;;5028192;28;19920;-82
2022/12/19 00:10:00;;;;;;;;;;;2.30;83.50;;;;;;5029044;28;19960;-82
2022/12/19 00:12:25;;;;;;;;;;;2.40;83.30;;;;;;5009901;28;19912;-82
2022/12/19 00:14:51;;;;;;;;;;;2.40;83.20;;;;;;5017901;28;20339;-82
2022/12/19 00:17:16;;;;;;;;;;;2.30;83.60;;;;;;5031962;28;19936;-82
2022/12/19 00:19:42;;;;;;;;;;;2.40;83.60;;;;;;5042851;28;20296;-82
2022/12/19 00:22:07;;;;;;;;;;;2.40;83.50;;;;;;5025631;28;20588;-83
2022/12/19 00:24:33;;;;;;;;;;;2.30;83.90;;;;;;5013017;28;20331;-83
2022/12/19 00:26:58;;;;;;;;;;;2.30;84.40;;;;;;5023455;28;20327;-82
2022/12/19 00:29:24;;;;;;;;;;;2.40;84.00;;;;;;5011679;28;20579;-81
2022/12/19 00:31:49;;;;;;;;;;;2.50;83.80;;;;;;5023543;28;19921;-82
2022/12/19 00:34:15;;;;;;;;;;;2.40;83.80;;;;;;5010116;28;19921;-82
2022/12/19 00:36:40;;;;;;;;;;;2.50;83.90;;;;;;5022799;28;19917;-81
2022/12/19 00:39:06;;;;;;;;;;;2.50;84.50;;;;;;5015893;28;20007;-81
2022/12/19 00:41:32;;;;;;;;;;;2.50;84.10;;;;;;5016958;28;19983;-82
2022/12/19 00:43:59;;;;;;;;;;;2.50;83.70;;;;;;5031099;28;19928;-83
2022/12/19 00:46:26;;;;;;;;;;;2.50;84.10;;;;;;5022850;28;19917;-81
2022/12/19 00:48:51;;;;;;;;;;;2.50;83.90;;;;;;5012663;28;19936;-82
2022/12/19 00:51:18;;;;;;;;;;;2.50;84.00;;;;;;5019045;28;20065;-83
2022/12/19 00:53:44;;;;;;;;;;;2.50;84.30;;;;;;5041209;28;19986;-84
2022/12/19 00:56:14;;;;;;;;;;;2.60;84.00;;;;;;5030091;28;19916;-84
2022/12/19 00:58:40;;;;;;;;;;;2.50;84.40;;;;;;5016919;28;19925;-83
2022/12/19 01:01:11;;;;;;;;;;;2.50;84.70;;;;;;5034967;28;19913;-80
2022/12/19 01:03:36;;;;;;;;;;;2.60;84.70;;;;;;5025883;28;19914;-82
2022/12/19 01:06:03;;;;;;;;;;;2.50;85.20;;;;;;5034382;28;19913;-81
2022/12/19 01:08:28;;;;;;;;;;;2.60;85.00;;;;;;5026094;28;19920;-82
2022/12/19 01:10:53;;;;;;;;;;;2.60;85.40;;;;;;5047381;28;20012;-84
2022/12/19 01:13:20;;;;;;;;;;;2.60;85.70;;;;;;5037043;28;19921;-82
2022/12/19 01:15:45;;;;;;;;;;;2.70;85.70;;;;;;5024308;28;20014;-80
2022/12/19 01:18:11;;;;;;;;;;;2.70;85.70;;;;;;5019604;28;19971;-82
2022/12/19 01:20:40;;;;;;;;;;;2.60;85.70;;;;;;5049229;28;19951;-80
2022/12/19 01:23:12;;;;;;;;;;;2.60;85.90;;;;;;5065172;22;19965;-88
2022/12/19 01:25:48;;;;;;;;;;;2.60;86.20;;;;;;5007587;28;20012;-85
2022/12/19 01:28:14;;;;;;;;;;;2.80;86.00;;;;;;5011229;28;19957;-86
2022/12/19 01:30:42;;;;;;;;;;;2.80;85.90;;;;;;5011120;28;19967;-86
2022/12/19 01:33:09;;;;;;;;;;;2.80;85.90;;;;;;5015763;28;19920;-86
2022/12/19 01:35:35;;;;;;;;;;;2.80;86.00;;;;;;5031424;28;19921;-86
2022/12/19 01:38:00;;;;;;;;;;;2.80;86.20;;;;;;5063842;28;20003;-86
2022/12/19 01:40:37;;;;;;;;;;;2.90;85.90;;;;;;5032686;28;19964;-86
2022/12/19 01:43:03;;;;;;;;;;;2.90;85.80;;;;;;5029117;28;20012;-85
2022/12/19 01:45:43;;;;;;;;;;;2.90;85.70;;;;;;5032394;28;20003;-86
2022/12/19 01:48:34;;;;;;;;;;;2.90;85.80;;;;;;5028987;28;20345;-85
2022/12/19 01:51:06;;;;;;;;;;;3.10;85.50;;;;;;5028059;28;19921;-85
2022/12/19 01:53:47;;;;;;;;;;;3.00;85.50;;;;;;5037155;28;19924;-84
2022/12/19 01:56:13;;;;;;;;;;;3.10;85.20;;;;;;5031446;28;19963;-83
2022/12/19 01:58:42;;;;;;;;;;;3.00;85.60;;;;;;5043001;28;19917;-86
2022/12/19 02:01:08;;;;;;;;;;;3.10;85.30;;;;;;5031207;28;19920;-84
2022/12/19 02:03:34;;;;;;;;;;;3.10;85.10;;;;;;5037656;28;19924;-86
2022/12/19 02:06:01;;;;;;;;;;;3.10;85.10;;;;;;5036887;28;19905;-85
2022/12/19 02:08:27;;;;;;;;;;;3.20;85.20;;;;;;5045521;28;19940;-86
2022/12/19 02:10:52;;;;;;;;;;;3.10;85.10;;;;;;5037428;28;19920;-85
2022/12/19 02:13:19;;;;;;;;;;;3.10;85.40;;;;;;5023178;28;20005;-86
2022/12/19 02:15:56;;;;;;;;;;;3.20;85.40;;;;;;5024616;28;19971;-85
2022/12/19 02:18:27;;;;;;;;;;;3.20;85.70;;;;;;5025644;28;19997;-86
2022/12/19 02:21:13;;;;;;;;;;;3.20;86.00;;;;;;5058807;28;19921;-85
2022/12/19 02:23:56;;;;;;;;;;;3.30;85.80;;;;;;5033581;28;19938;-86
2022/12/19 02:26:24;;;;;;;;;;;3.40;85.90;;;;;;5030417;28;19920;-86
2022/12/19 02:29:03;;;;;;;;;;;3.30;85.90;;;;;;5039491;28;19935;-85
2022/12/19 02:31:35;;;;;;;;;;;3.30;86.20;;;;;;5041837;28;19921;-87
2022/12/19 02:34:19;;;;;;;;;;;3.30;86.50;;;;;;5031231;28;19924;-86
2022/12/19 02:36:59;;;;;;;;;;;3.40;86.40;;;;;;5029009;28;19924;-86
2022/12/19 02:39:28;;;;;;;;;;;3.40;86.40;;;;;;5028311;28;19931;-86
2022/12/19 02:41:57;;;;;;;;;;;3.40;86.90;;;;;;5031749;28;20371;-86
2022/12/19 02:44:34;;;;;;;;;;;3.50;86.60;;;;;;5028999;28;19913;-86
2022/12/19 02:47:01;;;;;;;;;;;3.50;86.80;;;;;;5026469;28;19971;-87
2022/12/19 02:49:27;;;;;;;;;;;3.60;86.60;;;;;;5030966;28;19916;-86
2022/12/19 02:51:53;;;;;;;;;;;3.60;86.50;;;;;;5040425;28;19916;-85
2022/12/19 02:54:18;;;;;;;;;;;3.60;86.60;;;;;;5027829;28;20008;-86
2022/12/19 02:56:53;;;;;;;;;;;3.60;86.60;;;;;;5028157;28;20430;-85
2022/12/19 02:59:25;;;;;;;;;;;3.60;86.40;;;;;;5059443;28;19921;-86
2022/12/19 03:01:55;;;;;;;;;;;3.60;86.40;;;;;;5060286;28;19913;-85
2022/12/19 03:04:35;;;;;;;;;;;3.70;86.40;;;;;;5051651;28;19909;-85
2022/12/19 03:07:06;;;;;;;;;;;3.70;86.50;;;;;;5038566;28;19924;-82
2022/12/19 03:09:42;;;;;;;;;;;3.80;86.30;;;;;;5028382;28;19913;-86
2022/12/19 03:12:15;;;;;;;;;;;3.80;85.90;;;;;;5029520;28;19913;-85
2022/12/19 03:14:45;;;;;;;;;;;3.80;85.60;;;;;;5027692;28;19913;-86
2022/12/19 03:17:11;;;;;;;;;;;3.90;85.70;;;;;;5028716;28;20350;-85
2022/12/19 03:19:39;;;;;;;;;;;3.80;85.70;;;;;;5029221;28;19924;-85
2022/12/19 03:22:05;;;;;;;;;;;3.90;85.40;;;;;;5077700;28;19925;-83
2022/12/19 03:24:31;;;;;;;;;;;3.90;85.60;;;;;;5031173;28;20409;-85
2022/12/19 03:27:35;;;;;;;;;;;4.00;85.30;;;;;;5029925;28;20469;-84
2022/12/19 03:30:03;;;;;;;;;;;4.00;85.20;;;;;;5003651;28;19972;-84
2022/12/19 03:32:29;;;;;;;;;;;4.00;84.90;;;;;;4973503;28;19914;-82
2022/12/19 03:35:17;;;;;;;;;;;3.90;85.20;;;;;;5025378;28;19921;-85
2022/12/19 03:37:43;;;;;;;;;;;4.00;85.20;;;;;;5035330;28;19920;-85
2022/12/19 03:40:14;;;;;;;;;;;4.10;85.10;;;;;;5026160;28;20011;-86
2022/12/19 03:45:35;;;;;;;;;;;4.10;84.80;;;;;;5028421;28;19921;-85
2022/12/19 03:48:06;;;;;;;;;;;4.10;84.60;;;;;;5029748;28;20308;-82
2022/12/19 03:50:35;;;;;;;;;;;4.20;84.70;;;;;;5024850;28;19920;-83
2022/12/19 03:53:23;;;;;;;;;;;4.30;84.30;;;;;;5030667;28;20339;-85
2022/12/19 03:55:54;;;;;;;;;;;4.40;83.90;;;;;;5024943;28;19995;-87
2022/12/19 03:58:26;;;;;;;;;;;4.50;83.60;;;;;;5028531;28;19987;-84
2022/12/19 04:00:52;;;;;;;;;;;4.50;83.30;;;;;;5028498;28;19914;-82
2022/12/19 04:03:19;;;;;;;;;;;4.40;83.80;;;;;;5034936;28;20276;-84
2022/12/19 04:05:46;;;;;;;;;;;4.30;84.40;;;;;;5029144;28;19956;-85
2022/12/19 04:08:12;;;;;;;;;;;4.30;84.50;;;;;;5029805;28;19936;-85
2022/12/19 04:10:42;;;;;;;;;;;4.30;84.70;;;;;;5046355;28;19917;-84
2022/12/19 04:13:11;;;;;;;;;;;4.30;84.50;;;;;;5040490;28;19952;-84
2022/12/19 04:15:46;;;;;;;;;;;4.40;84.60;;;;;;5032218;28;19921;-85
2022/12/19 04:18:12;;;;;;;;;;;4.30;84.80;;;;;;5032204;28;19913;-85
2022/12/19 04:20:40;;;;;;;;;;;4.30;85.00;;;;;;5040990;28;19932;-84
2022/12/19 04:23:10;;;;;;;;;;;4.40;85.30;;;;;;5025193;28;20020;-84
2022/12/19 04:25:37;;;;;;;;;;;4.30;85.70;;;;;;5033181;28;19923;-84
2022/12/19 04:28:10;;;;;;;;;;;4.40;86.00;;;;;;5049189;28;19920;-84
2022/12/19 04:30:36;;;;;;;;;;;4.40;86.30;;;;;;5032410;28;19925;-82
2022/12/19 04:33:02;;;;;;;;;;;4.30;86.50;;;;;;5060228;28;20007;-84
2022/12/19 04:35:27;;;;;;;;;;;4.40;86.80;;;;;;5032792;28;20012;-83
2022/12/19 04:37:53;;;;;;;;;;;4.50;86.70;;;;;;5047570;28;19968;-85
2022/12/19 04:40:18;;;;;;;;;;;4.50;86.90;;;;;;5032507;28;20382;-83
2022/12/19 04:42:44;;;;;;;;;;;4.40;87.00;;;;;;5030959;28;20517;-85
2022/12/19 04:45:09;;;;;;;;;;;4.40;87.10;;;;;;5026692;28;20004;-84
2022/12/19 04:47:35;;;;;;;;;;;4.50;87.00;;;;;;5026002;28;21403;-85
2022/12/19 04:50:00;;;;;;;;;;;4.50;87.30;;;;;;5029395;28;19913;-85
2022/12/19 04:52:25;;;;;;;;;;;4.60;87.20;;;;;;5026731;28;20358;-84
2022/12/19 04:54:51;;;;;;;;;;;4.60;87.00;;;;;;5059745;28;20464;-83
2022/12/19 04:57:16;;;;;;;;;;;4.60;87.30;;;;;;5030749;28;19928;-85
2022/12/19 04:59:42;;;;;;;;;;;4.60;87.40;;;;;;5030546;28;20367;-84
2022/12/19 05:02:07;;;;;;;;;;;4.70;87.00;;;;;;5030722;28;19939;-84
2022/12/19 05:04:33;;;;;;;;;;;4.60;87.40;;;;;;5026941;28;19921;-86
2022/12/19 05:06:59;;;;;;;;;;;4.60;88.00;;;;;;5025872;28;20278;-84
2022/12/19 05:09:24;;;;;;;;;;;4.60;88.00;;;;;;5029612;28;20058;-85
2022/12/19 05:11:50;;;;;;;;;;;4.60;88.40;;;;;;5032852;28;19927;-85
2022/12/19 05:14:15;;;;;;;;;;;4.60;88.60;;;;;;5048219;28;19913;-85
2022/12/19 05:16:40;;;;;;;;;;;4.50;88.80;;;;;;5038590;28;19913;-84
2022/12/19 05:19:06;;;;;;;;;;;4.50;89.00;;;;;;5031541;28;19917;-85
2022/12/19 05:21:36;;;;;;;;;;;4.40;89.20;;;;;;5031976;28;20269;-87
2022/12/19 05:24:11;;;;;;;;;;;4.50;89.10;;;;;;5028800;28;19921;-86
2022/12/19 05:26:37;;;;;;;;;;;4.50;89.00;;;;;;5023270;28;20600;-84
2022/12/19 05:29:02;;;;;;;;;;;4.60;88.80;;;;;;5027683;28;19917;-85
2022/12/19 05:31:27;;;;;;;;;;;4.50;89.00;;;;;;5028477;28;19919;-84
2022/12/19 05:33:53;;;;;;;;;;;4.50;89.20;;;;;;5030506;28;20413;-83
2022/12/19 05:36:19;;;;;;;;;;;4.50;89.20;;;;;;5034699;28;19925;-82
2022/12/19 05:38:44;;;;;;;;;;;4.60;89.00;;;;;;5027186;28;19921;-85
2022/12/19 05:41:14;;;;;;;;;;;4.60;89.00;;;;;;5025410;28;19913;-85
2022/12/19 05:43:39;;;;;;;;;;;4.50;89.00;;;;;;5031555;28;19955;-84
2022/12/19 05:46:05;;;;;;;;;;;4.60;88.90;;;;;;5024138;28;19977;-85
2022/12/19 05:48:31;;;;;;;;;;;4.70;88.80;;;;;;5031295;28;19917;-85
2022/12/19 05:50:57;;;;;;;;;;;4.70;88.70;;;;;;5039691;28;19905;-84
2022/12/19 05:53:22;;;;;;;;;;;4.70;88.70;;;;;;5040447;28;19917;-84
2022/12/19 05:55:48;;;;;;;;;;;4.70;88.90;;;;;;5029525;28;20442;-83
2022/12/19 05:58:13;;;;;;;;;;;4.70;88.90;;;;;;5035767;28;19914;-85
2022/12/19 06:00:39;;;;;;;;;;;4.80;88.80;;;;;;5030610;28;19925;-85
2022/12/19 06:03:04;;;;;;;;;;;4.70;89.10;;;;;;5053664;28;19931;-86
2022/12/19 06:05:30;;;;;;;;;;;4.70;88.90;;;;;;5042483;28;19921;-84
2022/12/19 06:07:56;;;;;;;;;;;4.70;89.20;;;;;;5047795;28;19917;-85
2022/12/19 06:10:21;;;;;;;;;;;4.70;89.30;;;;;;5035020;28;20298;-85
2022/12/19 06:12:46;;;;;;;;;;;4.70;89.70;;;;;;5032128;28;20378;-84
2022/12/19 06:15:12;;;;;;;;;;;4.70;89.60;;;;;;5027131;28;20339;-84
2022/12/19 06:17:38;;;;;;;;;;;4.70;89.70;;;;;;5035476;28;20501;-83
2022/12/19 06:20:06;;;;;;;;;;;4.60;89.70;;;;;;5030075;28;19943;-86
2022/12/19 06:22:35;;;;;;;;;;;4.70;89.80;;;;;;5031092;28;20509;-86
2022/12/19 06:25:03;;;;;;;;;;;4.70;90.00;;;;;;5026075;28;19972;-87
2022/12/19 06:27:29;;;;;;;;;;;4.70;90.10;;;;;;5032160;28;20291;-84
2022/12/19 06:29:55;;;;;;;;;;;4.80;90.20;;;;;;5033378;28;19950;-88
2022/12/19 06:32:20;;;;;;;;;;;4.70;90.00;;;;;;5033746;28;19913;-87
2022/12/19 06:34:46;;;;;;;;;;;4.80;90.00;;;;;;5028651;28;20255;-88
2022/12/19 06:37:11;;;;;;;;;;;4.80;90.00;;;;;;5025079;28;19953;-89
2022/12/19 06:39:37;;;;;;;;;;;4.90;90.00;;;;;;5030587;28;20426;-87
2022/12/19 06:44:46;;;;;;;;;;;4.90;90.10;;;;;;5028667;28;19943;-86
2022/12/19 06:47:12;;;;;;;;;;;4.80;90.40;;;;;;5043665;28;19918;-86
2022/12/19 06:49:37;;;;;;;;;;;4.80;90.60;;;;;;5034403;28;20255;-87
2022/12/19 06:52:03;;;;;;;;;;;4.90;90.60;;;;;;5032880;28;19960;-83
2022/12/19 06:54:28;;;;;;;;;;;5.10;90.40;;;;;;5038195;28;19955;-86
2022/12/19 06:56:54;;;;;;;;;;;5.00;90.20;;;;;;5039829;28;20421;-87
2022/12/19 06:59:19;;;;;;;;;;;5.10;90.50;;;;;;5029028;28;19917;-86
2022/12/19 07:01:48;;;;;;;;;;;5.10;90.30;;;;;;5031953;28;19924;-86
2022/12/19 07:04:15;;;;;;;;;;;5.00;90.40;;;;;;5031790;28;20408;-86
2022/12/19 07:06:40;;;;;;;;;;;5.00;90.50;;;;;;5050015;28;20521;-86
2022/12/19 07:09:06;;;;;;;;;;;5.10;90.70;;;;;;5036448;28;19940;-86
2022/12/19 07:11:31;;;;;;;;;;;5.10;90.70;;;;;;5063294;28;20011;-87
2022/12/19 07:13:57;;;;;;;;;;;5.10;90.60;;;;;;5036655;28;19939;-87
2022/12/19 07:16:23;;;;;;;;;;;5.10;90.60;;;;;;5033088;28;19920;-84
2022/12/19 07:18:48;;;;;;;;;;;5.20;90.80;;;;;;5032637;28;20059;-85
2022/12/19 07:21:14;;;;;;;;;;;5.30;90.30;;;;;;5044072;28;19997;-84
2022/12/19 07:23:39;;;;;;;;;;;5.20;90.20;;;;;;5023788;22;19944;-85
2022/12/19 07:26:05;;;;;;;;;;;5.30;90.20;;;;;;5058836;28;19913;-87
2022/12/19 07:28:32;;;;;;;;;;;5.30;90.00;;;;;;5067888;28;19912;-83
2022/12/19 07:30:57;;;;;;;;;;;5.30;90.20;;;;;;5065851;28;19963;-85
2022/12/19 07:33:23;;;;;;;;;;;5.40;90.20;;;;;;5063736;28;19927;-87
2022/12/19 07:35:51;;;;;;;;;;;5.40;90.10;;;;;;5074675;28;19913;-86
2022/12/19 07:38:17;;;;;;;;;;;5.40;90.30;;;;;;5076506;28;19956;-84
2022/12/19 07:40:42;;;;;;;;;;;5.50;90.30;;;;;;5068810;28;20346;-83
2022/12/19 07:43:08;;;;;;;;;;;5.50;90.10;;;;;;5070596;28;19912;-83
2022/12/19 07:45:35;;;;;;;;;;;5.50;90.00;;;;;;5072311;28;19970;-87
2022/12/19 07:48:01;;;;;;;;;;;5.60;89.90;;;;;;5070048;28;19912;-85
2022/12/19 07:50:27;;;;;;;;;;;5.60;90.10;;;;;;5069834;28;19912;-86
2022/12/19 07:52:52;;;;;;;;;;;5.60;90.30;;;;;;5070696;28;19949;-86
2022/12/19 07:55:18;;;;;;;;;;;5.60;90.50;;;;;;5072889;28;19923;-87
2022/12/19 07:57:43;;;;;;;;;;;5.60;90.30;;;;;;5065771;28;19924;-86
2022/12/19 08:00:09;;;;;;;;;;;5.60;90.30;;;;;;5079399;28;19916;-84
2022/12/19 08:02:35;;;;;;;;;;;5.70;90.30;;;;;;5082462;28;19917;-84
2022/12/19 08:05:00;;;;;;;;;;;5.70;90.20;;;;;;5084798;28;19959;-85
2022/12/19 08:07:26;;;;;;;;;;;5.60;90.30;;;;;;5076870;28;19923;-86
2022/12/19 08:09:51;;;;;;;;;;;5.60;90.30;;;;;;5078419;28;19966;-85
2022/12/19 08:12:16;;;;;;;;;;;5.70;90.50;;;;;;5075822;28;19912;-86
2022/12/19 08:14:42;;;;;;;;;;;5.70;90.40;;;;;;5077913;28;19963;-86
2022/12/19 08:17:08;;;;;;;;;;;5.70;90.50;;;;;;5074363;28;19913;-86
2022/12/19 08:19:33;;;;;;;;;;;5.70;90.50;;;;;;5071491;28;20343;-85
2022/12/19 08:21:59;;;;;;;;;;;5.80;90.30;;;;;;5083588;28;19901;-88
2022/12/19 08:24:24;;;;;;;;;;;5.80;90.10;;;;;;5096406;28;19908;-88
2022/12/19 08:26:50;;;;;;;;;;;5.90;90.00;;;;;;5076331;28;20016;-86
2022/12/19 08:29:15;;;;;;;;;;;5.90;89.70;;;;;;5077073;28;19917;-85
2022/12/19 08:31:41;;;;;;;;;;;5.80;89.60;;;;;;5073868;28;20558;-84
2022/12/19 08:34:06;;;;;;;;;;;5.80;89.70;;;;;;5073404;28;19912;-84
2022/12/19 08:36:31;;;;;;;;;;;5.90;89.80;;;;;;5074034;28;20015;-85
2022/12/19 08:38:57;;;;;;;;;;;6.00;89.50;;;;;;5067695;28;19920;-84
2022/12/19 08:41:22;;;;;;;;;;;6.00;89.10;;;;;;5069226;28;19909;-85
2022/12/19 08:43:49;;;;;;;;;;;6.00;89.30;;;;;;5078179;28;19913;-86
2022/12/19 08:46:16;;;;;;;;;;;6.00;89.30;;;;;;5074724;28;19971;-85
2022/12/19 08:48:42;;;;;;;;;;;6.00;89.10;;;;;;5066918;28;19979;-83
2022/12/19 08:51:07;;;;;;;;;;;6.00;89.10;;;;;;5069875;28;19947;-82
2022/12/19 08:53:34;;;;;;;;;;;6.00;89.10;;;;;;5069670;28;19916;-85
2022/12/19 08:56:01;;;;;;;;;;;6.00;88.80;;;;;;5070710;28;20278;-86
2022/12/19 08:58:27;;;;;;;;;;;6.00;88.80;;;;;;5071660;28;19917;-84
2022/12/19 09:00:53;;;;;;;;;;;6.00;88.60;;;;;;5070912;28;19958;-85
2022/12/19 09:03:19;;;;;;;;;;;6.10;88.50;;;;;;5073554;28;19916;-85
2022/12/19 09:05:45;;;;;;;;;;;6.20;88.30;;;;;;5074061;28;19916;-87
2022/12/19 09:08:11;;;;;;;;;;;6.20;88.40;;;;;;5067260;28;19919;-88
2022/12/19 09:10:36;;;;;;;;;;;6.20;88.40;;;;;;5071489;28;19969;-86
2022/12/19 09:13:03;;;;;;;;;;;6.20;88.30;;;;;;5073781;28;20531;-85
2022/12/19 09:15:29;;;;;;;;;;;6.30;88.40;;;;;;5075481;28;19919;-87
2022/12/19 09:17:54;;;;;;;;;;;6.30;88.10;;;;;;5074246;28;19917;-87
2022/12/19 09:20:20;;;;;;;;;;;6.30;87.90;;;;;;5074401;28;19917;-89
2022/12/19 09:22:45;;;;;;;;;;;6.30;88.10;;;;;;5071016;28;20370;-88
2022/12/19 09:25:11;;;;;;;;;;;6.30;88.20;;;;;;5074152;28;19917;-87
2022/12/19 09:27:36;;;;;;;;;;;6.40;88.10;;;;;;5077261;28;19912;-89
2022/12/19 09:30:02;;;;;;;;;;;6.40;88.00;;;;;;5096313;28;19908;-87
2022/12/19 09:32:27;;;;;;;;;;;6.40;88.00;;;;;;5077524;28;19916;-87
2022/12/19 09:34:53;;;;;;;;;;;6.40;88.20;;;;;;5075392;28;19923;-90
2022/12/19 09:37:18;;;;;;;;;;;6.50;88.00;;;;;;5075543;28;20321;-88
2022/12/19 09:39:45;;;;;;;;;;;6.60;87.80;;;;;;5075848;28;19923;-87
2022/12/19 09:42:19;;;;;;;;;;;6.50;87.80;;;;;;5082415;28;19920;-87
2022/12/19 09:44:54;;;;;;;;;;;6.60;87.80;;;;;;5078896;28;19968;-86
2022/12/19 09:47:24;;;;;;;;;;;6.60;87.80;;;;;;5094570;28;20428;-87
2022/12/19 09:49:50;;;;;;;;;;;6.60;87.80;;;;;;5073639;28;20007;-88
2022/12/19 09:52:37;;;;;;;;;;;6.60;87.80;;;;;;5072969;28;19979;-87
2022/12/19 09:55:06;;;;;;;;;;;6.70;87.80;;;;;;5094882;28;19923;-87
2022/12/19 09:57:58;;;;;;;;;;;6.70;87.80;;;;;;5068945;28;20408;-88
2022/12/19 10:00:25;;;;;;;;;;;6.80;87.50;;;;;;5050127;28;19955;-87
2022/12/19 10:03:04;;;;;;;;;;;6.90;87.40;;;;;;5098788;28;19913;-89
2022/12/19 10:05:33;;;;;;;;;;;6.80;87.40;;;;;;5084332;28;20024;-88
2022/12/19 10:08:00;;;;;;;;;;;6.80;87.70;;;;;;5090849;28;19946;-88
2022/12/19 10:10:28;;;;;;;;;;;6.90;87.60;;;;;;5078890;28;20049;-90
2022/12/19 10:12:53;;;;;;;;;;;7.00;87.50;;;;;;5071506;28;19970;-88
2022/12/19 10:15:48;;;;;;;;;;;7.00;87.40;;;;;;5071311;28;20410;-88
2022/12/19 10:18:14;;;;;;;;;;;7.00;87.60;;;;;;5014987;28;19931;-87
2022/12/19 10:21:06;;;;;;;;;;;7.10;87.50;;;;;;5070882;28;19912;-88
2022/12/19 10:23:56;;;;;;;;;;;7.10;87.60;;;;;;5065745;28;19913;-88
2022/12/19 10:26:29;;;;;;;;;;;7.20;87.60;;;;;;5072083;28;19916;-86
2022/12/19 10:29:00;;;;;;;;;;;7.30;87.50;;;;;;5071108;28;19927;-87
2022/12/19 10:31:32;;;;;;;;;;;7.30;87.30;;;;;;5069508;28;20274;-87
2022/12/19 10:34:00;;;;;;;;;;;7.30;87.20;;;;;;5072305;28;20011;-86
2022/12/19 10:36:26;;;;;;;;;;;7.20;87.10;;;;;;5072667;28;20350;-89
2022/12/19 10:38:57;;;;;;;;;;;7.30;87.00;;;;;;5072567;28;19908;-89
2022/12/19 10:41:24;;;;;;;;;;;7.30;87.30;;;;;;5068896;28;19916;-89
2022/12/19 10:43:58;;;;;;;;;;;7.30;87.20;;;;;;5068230;28;19935;-88
2022/12/19 10:46:34;;;;;;;;;;;7.30;87.00;;;;;;5078634;28;19912;-87
2022/12/19 10:49:05;;;;;;;;;;;7.40;87.10;;;;;;5094124;28;19912;-85
2022/12/19 10:51:30;;;;;;;;;;;7.40;87.10;;;;;;5072572;28;19920;-85
2022/12/19 10:53:57;;;;;;;;;;;7.30;87.30;;;;;;5072603;28;19913;-87
2022/12/19 10:56:26;;;;;;;;;;;7.30;87.10;;;;;;5083823;28;19912;-84
2022/12/19 10:58:57;;;;;;;;;;;7.40;87.00;;;;;;5078802;28;20419;-87
2022/12/19 11:01:32;;;;;;;;;;;7.40;87.10;;;;;;5072749;28;19918;-89
2022/12/19 11:04:17;;;;;;;;;;;7.50;86.90;;;;;;5073151;28;20007;-86
2022/12/19 11:06:43;;;;;;;;;;;7.50;86.30;;;;;;5072466;28;19919;-86
2022/12/19 11:09:19;;;;;;;;;;;7.40;86.60;;;;;;5070337;28;19987;-86
2022/12/19 11:11:46;;;;;;;;;;;7.50;86.50;;;;;;5075050;28;20186;-86
2022/12/19 11:14:22;;;;;;;;;;;7.50;86.50;;;;;;5080297;28;19899;-85
2022/12/19 11:16:48;;;;;;;;;;;7.50;86.10;;;;;;5074123;28;19950;-86
2022/12/19 11:19:21;;;;;;;;;;;7.60;85.90;;;;;;5073576;28;19916;-85
2022/12/19 11:21:47;;;;;;;;;;;7.60;85.40;;;;;;5061058;28;19998;-86
2022/12/19 11:24:23;;;;;;;;;;;7.60;85.30;;;;;;5071630;28;19920;-88
2022/12/19 11:26:49;;;;;;;;;;;7.60;85.30;;;;;;5080233;28;19990;-87
2022/12/19 11:29:24;;;;;;;;;;;7.60;85.30;;;;;;5073220;28;19922;-89
2022/12/19 11:32:00;;;;;;;;;;;7.60;84.70;;;;;;5073544;28;19920;-88
2022/12/19 11:34:34;;;;;;;;;;;7.60;84.60;;;;;;5079972;28;20382;-89
2022/12/19 11:37:09;;;;;;;;;;;7.60;84.50;;;;;;5073514;28;19991;-87
2022/12/19 11:39:44;;;;;;;;;;;7.70;84.40;;;;;;5082570;28;19919;-86
2022/12/19 11:42:13;;;;;;;;;;;7.70;83.90;;;;;;5068293;28;19912;-87
2022/12/19 11:44:59;;;;;;;;;;;7.60;83.60;;;;;;5072980;28;19974;-84
2022/12/19 11:48:00;;;;;;;;;;;7.60;84.00;;;;;;5070952;28;20007;-86
2022/12/19 11:50:27;;;;;;;;;;;7.60;84.20;;;;;;5011795;28;19925;-84
2022/12/19 11:53:22;;;;;;;;;;;7.60;83.90;;;;;;5056956;28;20270;-86
2022/12/19 11:56:16;;;;;;;;;;;7.60;84.00;;;;;;5065939;28;19983;-87
2022/12/19 11:58:52;;;;;;;;;;;7.70;83.70;;;;;;5061065;28;19916;-87
2022/12/19 12:01:48;;;;;;;;;;;7.70;83.70;;;;;;5078650;28;19913;-85
2022/12/19 12:04:25;;;;;;;;;;;7.70;83.60;;;;;;5075920;28;19916;-85
2022/12/19 12:07:36;;;;;;;;;;;7.80;83.60;;;;;;5091711;28;19913;-85
2022/12/19 12:10:31;;;;;;;;;;;7.80;83.40;;;;;;5076603;28;19901;-85
2022/12/19 12:13:46;;;;;;;;;;;7.90;83.60;;;;;;5091672;28;19913;-87
2022/12/19 12:16:30;;;;;;;;;;;7.80;83.30;;;;;;5065083;28;19912;-86
2022/12/19 12:22:22;;;;;;;;;;;7.90;83.30;;;;;;5052671;28;19919;-86
2022/12/19 12:25:10;;;;;;;;;;;7.90;82.70;;;;;;5074382;28;19925;-86
2022/12/19 12:28:20;;;;;;;;;;;8.00;82.70;;;;;;5071595;28;19912;-85
2022/12/19 12:30:51;;;;;;;;;;;8.00;82.30;;;;;;5074597;28;19920;-86
2022/12/19 12:40:22;;;;;;;;;;;8.00;82.00;;;;;;4916358;29;19969;-85
2022/12/19 12:42:47;;;;;;;;;;;8.10;81.60;;;;;;4931588;29;20300;-85
2022/12/19 12:45:18;;;;;;;;;;;8.10;81.30;;;;;;4998059;28;19928;-85
2022/12/19 12:47:46;;;;;;;;;;;8.10;81.00;;;;;;5079535;28;19930;-84
2022/12/19 12:50:20;;;;;;;;;;;8.10;81.30;;;;;;5088332;28;19913;-86
2022/12/19 12:52:59;;;;;;;;;;;8.10;81.30;;;;;;5081029;28;19912;-85
2022/12/19 12:55:57;;;;;;;;;;;;;;;;;;;;;
2022/12/19 12:58:44;;;;;;;;;;;8.20;80.90;;;;;;5080421;28;19995;-85
2022/12/19 13:01:28;;;;;;;;;;;8.10;81.10;;;;;;5079108;28;19912;-85
2022/12/19 13:04:30;;;;;;;;;;;8.20;80.80;;;;;;5078958;28;19912;-86
2022/12/19 13:07:01;;;;;;;;;;;8.30;80.40;;;;;;5082517;28;19968;-85
2022/12/19 13:09:38;;;;;;;;;;;8.40;80.30;;;;;;5081946;28;19927;-85
2022/12/19 13:15:26;;;;;;;;;;;8.50;79.90;;;;;;5076076;22;20738;-77
2022/12/19 13:17:51;;;;;;;;;;;8.50;79.60;;;;;;5041730;28;19939;-78
2022/12/19 13:20:17;;;;;;;;;;;8.50;79.60;;;;;;5059743;28;20315;-76
2022/12/19 13:22:43;;;;;;;;;;;8.60;79.50;;;;;;5069358;28;19912;-77
2022/12/19 13:25:35;;;;;;;;;;;8.50;79.30;;;;;;5057233;22;20008;-79
2022/12/19 13:28:00;;;;;;;;;;;8.60;79.40;;;;;;5041949;28;19925;-79
2022/12/19 13:30:27;;;;;;;;;;;8.50;79.20;;;;;;5047874;28;19917;-79
2022/12/19 13:32:52;;;;;;;;;;;8.50;79.40;;;;;;5053899;28;19920;-80
2022/12/19 13:35:18;;;;;;;;;;;8.50;79.10;;;;;;5051013;28;19912;-81
2022/12/19 13:38:15;;;;;;;;;;;8.50;79.30;;;;;;5045052;28;19921;-81
2022/12/19 13:40:53;;;;;;;;;;;8.50;78.90;;;;;;5069130;28;19992;-82
2022/12/19 13:46:17;;;;;;;;;;;8.50;78.60;;;;;;5062775;28;19939;-82
2022/12/19 13:48:44;;;;;;;;;;;8.50;78.80;;;;;;5056451;28;19913;-80
2022/12/19 13:51:10;;;;;;;;;;;8.50;79.00;;;;;;5061061;28;19913;-77
2022/12/19 13:53:36;;;;;;;;;;;8.50;78.90;;;;;;5062037;28;20479;-78
2022/12/19 13:56:10;;;;;;;;;;;8.60;78.80;;;;;;5055210;28;19913;-79
2022/12/19 13:58:46;;;;;;;;;;;8.50;78.50;;;;;;5047143;28;19917;-79
2022/12/19 14:01:32;;;;;;;;;;;8.60;78.30;;;;;;5045923;28;19917;-78
2022/12/19 14:04:02;;;;;;;;;;;8.60;78.10;;;;;;5065873;28;19913;-80
2022/12/19 14:06:29;;;;;;;;;;;8.50;78.20;;;;;;5067219;28;20313;-77
2022/12/19 14:09:03;;;;;;;;;;;8.60;77.90;;;;;;5048142;28;19909;-80
2022/12/19 14:11:29;;;;;;;;;;;8.50;77.80;;;;;;5062986;28;19913;-79
2022/12/19 14:16:44;;;;;;;;;;;8.50;77.80;;;;;;5049094;28;19948;-80
2022/12/19 14:19:17;;;;;;;;;;;8.60;77.10;;;;;;5059139;28;19913;-78
2022/12/19 14:21:42;;;;;;;;;;;8.50;77.30;;;;;;5040981;28;19920;-79
2022/12/19 14:24:09;;;;;;;;;;;8.50;77.40;;;;;;5049138;28;20066;-80
2022/12/19 14:26:35;;;;;;;;;;;8.50;77.40;;;;;;5041331;28;20040;-79
2022/12/19 14:29:06;;;;;;;;;;;8.40;77.60;;;;;;5054065;28;19920;-78
2022/12/19 14:31:34;;;;;;;;;;;8.40;77.70;;;;;;5054624;28;20466;-80
2022/12/19 14:34:00;;;;;;;;;;;8.40;77.70;;;;;;5058024;28;19897;-79
2022/12/19 14:36:26;;;;;;;;;;;8.40;77.80;;;;;;5064464;28;19920;-79
2022/12/19 14:38:53;;;;;;;;;;;8.40;77.50;;;;;;5072827;28;19901;-79
2022/12/19 14:43:37;;;;;;;;;;;8.40;77.30;;;;;;5058252;28;19897;-79
2022/12/19 14:44:10;;;;;;;;;;;8.20;77.70;;;;;;5040811;28;19909;-80
2022/12/19 14:46:37;;;;;;;;;;;8.20;77.80;;;;;;5059478;28;19924;-80
2022/12/19 14:49:20;;;;;;;;;;;8.30;77.90;;;;;;5054885;28;19917;-81
2022/12/19 14:51:46;;;;;;;;;;;8.20;78.10;;;;;;5052584;28;19928;-80
2022/12/19 14:54:12;;;;;;;;;;;8.20;77.90;;;;;;5042451;28;20372;-80
2022/12/19 14:56:52;;;;;;;;;;;8.10;77.80;;;;;;5047305;28;19913;-80
2022/12/19 14:59:29;;;;;;;;;;;8.20;78.00;;;;;;5047186;28;19920;-79
2022/12/19 15:01:54;;;;;;;;;;;8.20;77.70;;;;;;5054030;28;19919;-80
2022/12/19 15:04:21;;;;;;;;;;;8.20;77.80;;;;;;5042561;28;19916;-80
2022/12/19 15:06:47;;;;;;;;;;;8.20;77.70;;;;;;5052743;28;19913;-80
2022/12/19 15:09:15;;;;;;;;;;;8.10;78.00;;;;;;5051352;28;19986;-81
2022/12/19 15:14:38;;;;;;;;;;;8.20;78.10;;;;;;5053351;28;19967;-80